Time;durP1;ratioP1;P1;durP2;ratioP2;P2;SDS_P1;SDS_P2;PMS_P1;PMS_P2;Temp;Humidity;BMP_temperature;BMP_pressure;BME280_temperature;BME280_humidity;BME280_pressure;Samples;Min_cycle;Max_cycle;Signal;HPM_P1;HPM_P2
2023/09/27 00:00:08;;;;;;;10.70;6.05;;;;;;;16.85;66.37;101340.31;680164;29;1393;-92
2023/09/27 00:00:32;;;;;;;9.98;5.60;;;;;;;16.91;66.44;101347.41;683278;28;1250;-92
2023/09/27 00:00:53;;;;;;;10.27;5.90;;;;;;;16.91;66.32;101350.03;684288;28;1065;-92
2023/09/27 00:01:14;;;;;;;7.10;5.70;;;;;;;16.88;66.25;101350.00;681367;29;1159;-92
2023/09/27 00:01:35;;;;;;;7.40;5.90;;;;;;;16.86;66.38;101342.06;678917;29;1398;-91
2023/09/27 00:01:55;;;;;;;6.60;5.32;;;;;;;16.85;66.48;101347.34;682341;29;1256;-93
2023/09/27 00:02:16;;;;;;;6.43;5.60;;;;;;;16.88;66.53;101352.66;682585;29;1256;-93
2023/09/27 00:02:41;;;;;;;6.13;5.50;;;;;;;16.90;66.51;101356.19;682566;29;1271;-91
2023/09/27 00:03:03;;;;;;;7.93;6.25;;;;;;;16.87;66.58;101353.53;684207;29;1205;-92
2023/09/27 00:03:24;;;;;;;8.77;6.10;;;;;;;16.82;66.45;101348.19;684620;28;1336;-92
2023/09/27 00:03:44;;;;;;;10.90;6.15;;;;;;;16.88;66.25;101352.66;685275;28;1694;-92
2023/09/27 00:04:05;;;;;;;9.90;5.67;;;;;;;16.81;66.25;101342.91;681962;29;1133;-92
2023/09/27 00:04:28;;;;;;;8.60;5.40;;;;;;;16.82;66.51;101349.94;683899;29;1922;-93
2023/09/27 00:04:48;;;;;;;7.15;5.43;;;;;;;16.85;66.31;101350.00;679286;29;1283;-92
2023/09/27 00:05:11;;;;;;;6.57;5.32;;;;;;;16.80;66.52;101349.03;681761;29;1255;-92
2023/09/27 00:05:32;;;;;;;7.30;5.90;;;;;;;16.80;66.40;101349.94;681636;29;1182;-92
2023/09/27 00:05:53;;;;;;;6.78;5.90;;;;;;;16.80;66.49;101349.03;678278;29;1246;-93
2023/09/27 00:06:14;;;;;;;6.80;5.93;;;;;;;16.80;66.38;101349.03;680533;29;1291;-93
2023/09/27 00:06:35;;;;;;;8.07;5.90;;;;;;;16.74;66.19;101343.69;679200;29;1291;-92
2023/09/27 00:06:56;;;;;;;9.85;6.32;;;;;;;16.72;66.47;101341.06;681303;29;1323;-92
2023/09/27 00:07:17;;;;;;;13.93;6.10;;;;;;;16.74;66.65;101344.59;682332;29;1213;-91
2023/09/27 00:07:39;;;;;;;12.70;6.22;;;;;;;16.76;66.53;101353.41;681911;29;851;-91
2023/09/27 00:08:00;;;;;;;11.23;6.07;;;;;;;16.78;66.41;101362.19;686648;28;1221;-93
2023/09/27 00:08:20;;;;;;;8.13;6.30;;;;;;;16.74;66.51;101359.50;682088;29;1314;-93
2023/09/27 00:08:42;;;;;;;8.30;6.00;;;;;;;16.74;66.45;101351.59;686069;28;1572;-93
2023/09/27 00:09:04;;;;;;;8.43;6.22;;;;;;;16.72;66.43;101351.59;689069;28;1367;-92
2023/09/27 00:09:31;;;;;;;7.40;5.80;;;;;;;16.67;66.58;101342.75;684186;28;1214;-92
2023/09/27 00:09:52;;;;;;;7.57;5.60;;;;;;;16.70;66.62;101356.84;684507;28;1310;-93
2023/09/27 00:10:13;;;;;;;8.32;5.80;;;;;;;16.66;66.54;101346.25;686662;28;1379;-92
2023/09/27 00:10:34;;;;;;;9.30;6.05;;;;;;;16.68;66.41;101353.31;686345;28;1384;-92
2023/09/27 00:10:54;;;;;;;10.10;6.30;;;;;;;16.70;66.55;101358.59;685317;28;1170;-92
2023/09/27 00:11:15;;;;;;;10.38;6.60;;;;;;;16.63;66.76;101341.84;691440;28;1237;-92
2023/09/27 00:11:36;;;;;;;9.25;6.80;;;;;;;16.68;66.65;101355.97;682891;28;1443;-92
2023/09/27 00:11:57;;;;;;;7.88;6.38;;;;;;;16.72;66.58;101357.75;680204;29;1340;-92
2023/09/27 00:12:18;;;;;;;7.70;5.97;;;;;;;16.71;66.58;101355.97;687187;28;1201;-93
2023/09/27 00:12:40;;;;;;;6.68;5.40;;;;;;;16.66;66.59;101347.13;689752;28;1286;-92
2023/09/27 00:13:01;;;;;;;7.53;5.57;;;;;;;16.66;66.46;101349.75;682468;28;1261;-92
2023/09/27 00:13:21;;;;;;;7.17;5.67;;;;;;;16.68;66.60;101350.69;685006;28;1089;-92
2023/09/27 00:13:42;;;;;;;8.48;6.20;;;;;;;16.68;66.67;101350.69;682995;29;1269;-92
2023/09/27 00:14:03;;;;;;;7.65;5.93;;;;;;;16.64;66.65;101343.59;682499;28;1281;-93
2023/09/27 00:14:24;;;;;;;8.98;5.90;;;;;;;16.66;66.65;101347.13;676738;29;1182;-93
2023/09/27 00:14:45;;;;;;;7.80;5.60;;;;;;;16.67;66.72;101355.94;682768;28;1310;-93
2023/09/27 00:15:08;;;;;;;7.60;5.63;;;;;;;16.61;66.61;101340.94;679357;29;1307;-92
2023/09/27 00:15:30;;;;;;;6.45;5.40;;;;;;;16.63;66.79;101347.09;684534;28;1317;-93
2023/09/27 00:15:51;;;;;;;7.35;5.60;;;;;;;16.62;66.74;101352.34;680076;29;1238;-93
2023/09/27 00:16:12;;;;;;;6.77;5.40;;;;;;;16.65;66.60;101353.25;682217;29;1167;-93
2023/09/27 00:16:33;;;;;;;7.47;5.85;;;;;;;16.61;66.45;101351.47;682817;28;1225;-92
2023/09/27 00:16:54;;;;;;;7.50;6.00;;;;;;;16.60;66.68;101352.34;685333;28;1089;-92
2023/09/27 00:17:14;;;;;;;7.57;6.30;;;;;;;16.62;66.70;101350.59;682722;29;1291;-92
2023/09/27 00:17:35;;;;;;;7.30;6.10;;;;;;;16.59;66.78;101353.19;685647;28;1262;-91
2023/09/27 00:17:56;;;;;;;6.90;6.00;;;;;;;16.63;66.67;101362.91;682476;29;1400;-93
2023/09/27 00:18:17;;;;;;;8.20;6.13;;;;;;;16.58;66.65;101352.31;685360;28;1305;-93
2023/09/27 00:18:38;;;;;;;8.90;6.10;;;;;;;16.59;66.74;101355.81;685281;28;1536;-92
2023/09/27 00:18:58;;;;;;;9.10;5.90;;;;;;;16.59;66.67;101353.19;684654;28;1219;-93
2023/09/27 00:19:19;;;;;;;7.70;5.50;;;;;;;16.60;66.81;101357.63;685404;28;1237;-92
2023/09/27 00:19:41;;;;;;;9.13;5.60;;;;;;;16.58;66.68;101348.78;677743;29;1507;-93
2023/09/27 00:20:03;;;;;;;9.80;5.90;;;;;;;16.60;66.74;101354.97;675293;29;1268;-92
2023/09/27 00:20:24;;;;;;;10.65;6.20;;;;;;;16.61;66.81;101359.38;677449;29;1207;-92
2023/09/27 00:20:45;;;;;;;8.35;5.75;;;;;;;16.61;66.88;101356.75;677380;29;1639;-92
2023/09/27 00:21:06;;;;;;;8.95;5.80;;;;;;;16.58;66.77;101356.69;683237;28;1320;-92
2023/09/27 00:21:27;;;;;;;8.10;5.80;;;;;;;16.64;66.82;101367.31;679828;29;1340;-93
2023/09/27 00:21:48;;;;;;;8.93;6.22;;;;;;;16.59;66.88;101353.19;688285;28;1188;-93
2023/09/27 00:22:10;;;;;;;9.10;6.73;;;;;;;16.53;66.95;101346.09;685292;28;1165;-92
2023/09/27 00:22:31;;;;;;;10.00;6.97;;;;;;;16.58;66.94;101356.69;682644;29;1284;-93
2023/09/27 00:22:54;;;;;;;10.45;7.30;;;;;;;16.52;66.74;101346.97;681985;29;1226;-92
2023/09/27 00:23:15;;;;;;;10.27;6.88;;;;;;;16.55;66.89;101346.13;685435;28;1402;-92
2023/09/27 00:23:37;;;;;;;9.18;6.70;;;;;;;16.56;66.87;101351.44;687855;28;1264;-93
2023/09/27 00:23:58;;;;;;;7.18;6.00;;;;;;;16.55;66.60;101354.03;685120;28;1169;-93
2023/09/27 00:24:19;;;;;;;9.77;6.13;;;;;;;16.54;66.77;101353.13;676481;29;1982;-93
2023/09/27 00:24:39;;;;;;;9.47;6.10;;;;;;;16.51;66.85;101341.66;685554;28;948;-92
2023/09/27 00:25:00;;;;;;;10.52;6.38;;;;;;;16.56;66.76;101356.69;682491;28;1146;-93
2023/09/27 00:25:24;;;;;;;7.80;6.15;;;;;;;16.54;66.84;101353.13;679647;29;1333;-92
2023/09/27 00:25:45;;;;;;;7.78;6.00;;;;;;;16.53;66.85;101350.50;679755;29;1288;-93
2023/09/27 00:26:05;;;;;;;6.38;5.60;;;;;;;16.48;66.67;101346.91;681852;28;1180;-92
2023/09/27 00:26:26;;;;;;;6.93;5.90;;;;;;;16.52;66.85;101353.97;684879;28;1254;-92
2023/09/27 00:26:47;;;;;;;7.10;6.28;;;;;;;16.47;66.88;101351.28;688086;28;1349;-92
2023/09/27 00:27:10;;;;;;;7.65;6.45;;;;;;;16.50;66.81;101355.72;687911;28;1186;-93
2023/09/27 00:27:33;;;;;;;7.60;6.28;;;;;;;16.47;66.88;101350.41;684170;28;1288;-93
2023/09/27 00:27:53;;;;;;;8.60;6.40;;;;;;;16.41;66.91;101341.56;679714;29;1374;-92
2023/09/27 00:28:15;;;;;;;8.98;6.18;;;;;;;16.50;66.94;101355.72;682028;29;1435;-93
2023/09/27 00:28:36;;;;;;;7.95;5.85;;;;;;;16.50;66.92;101366.25;682863;29;1261;-92
2023/09/27 00:28:56;;;;;;;8.85;6.20;;;;;;;16.52;66.94;101361.88;682582;28;1289;-92
2023/09/27 00:29:17;;;;;;;9.30;6.50;;;;;;;16.43;66.85;101345.09;681314;28;1156;-92
2023/09/27 00:29:39;;;;;;;8.93;6.20;;;;;;;16.40;66.81;101342.44;682937;29;1327;-93
2023/09/27 00:29:59;;;;;;;7.68;6.00;;;;;;;16.49;66.84;101361.84;682606;29;1250;-92
2023/09/27 00:30:20;;;;;;;7.55;5.95;;;;;;;16.42;66.95;101345.94;683145;28;1208;-93
2023/09/27 00:30:42;;;;;;;8.25;6.40;;;;;;;16.46;66.93;101356.56;683027;29;926;-92
2023/09/27 00:31:04;;;;;;;8.70;6.43;;;;;;;16.47;66.66;101355.69;686597;28;1172;-92
2023/09/27 00:31:25;;;;;;;9.05;6.82;;;;;;;16.53;66.81;101363.66;682140;29;1364;-93
2023/09/27 00:31:46;;;;;;;8.75;6.80;;;;;;;16.42;66.78;101351.22;683125;28;1196;-93
2023/09/27 00:32:06;;;;;;;9.47;7.17;;;;;;;16.40;66.86;101338.88;684995;28;1205;-93
2023/09/27 00:32:31;;;;;;;8.43;6.90;;;;;;;16.47;66.95;101355.69;682707;29;1448;-93
2023/09/27 00:32:53;;;;;;;8.95;6.95;;;;;;;16.44;66.84;101354.78;676462;29;1222;-92
2023/09/27 00:33:13;;;;;;;11.05;6.97;;;;;;;16.41;66.87;101349.47;680563;29;1367;-93
2023/09/27 00:33:34;;;;;;;10.50;6.97;;;;;;;16.44;66.94;101351.25;680115;29;1331;-93
2023/09/27 00:33:55;;;;;;;9.43;6.70;;;;;;;16.42;66.79;101353.84;684643;28;1148;-92
2023/09/27 00:34:16;;;;;;;7.18;6.47;;;;;;;16.49;66.90;101361.84;685249;28;1365;-92
2023/09/27 00:34:36;;;;;;;7.20;6.40;;;;;;;16.46;66.85;101364.44;680036;29;1190;-92
2023/09/27 00:34:57;;;;;;;7.60;6.53;;;;;;;16.44;66.85;101351.25;679684;29;1244;-92
2023/09/27 00:35:22;;;;;;;8.57;7.25;;;;;;;16.43;66.90;101355.63;679118;29;1149;-92
2023/09/27 00:35:50;;;;;;;9.80;7.63;;;;;;;16.44;66.94;101357.41;684733;28;1304;-92
2023/09/27 00:36:10;;;;;;;12.27;7.13;;;;;;;16.40;66.97;101366.13;681984;29;1372;-92
2023/09/27 00:36:31;;;;;;;12.00;7.13;;;;;;;16.40;66.95;101358.22;679936;29;1250;-92
2023/09/27 00:36:52;;;;;;;10.80;6.83;;;;;;;16.31;67.11;101339.69;681316;29;1313;-92
2023/09/27 00:37:13;;;;;;;10.90;6.70;;;;;;;16.41;66.96;101357.38;682479;29;1204;-92
2023/09/27 00:37:33;;;;;;;10.98;6.70;;;;;;;16.34;66.99;101350.25;685491;28;1185;-93
2023/09/27 00:37:54;;;;;;;10.40;6.57;;;;;;;16.34;67.01;101344.97;685172;28;1225;-92
2023/09/27 00:38:15;;;;;;;7.60;6.23;;;;;;;16.38;66.88;101359.97;682647;28;1276;-92
2023/09/27 00:38:36;;;;;;;7.53;6.13;;;;;;;16.36;66.93;101353.81;680014;29;1098;-92
2023/09/27 00:38:57;;;;;;;8.07;6.47;;;;;;;16.35;66.95;101354.63;682279;29;1399;-92
2023/09/27 00:39:17;;;;;;;8.50;6.70;;;;;;;16.37;66.85;101358.19;682557;28;1413;-93
2023/09/27 00:39:39;;;;;;;8.82;6.68;;;;;;;16.36;66.89;101353.81;685580;28;818;-92
2023/09/27 00:39:59;;;;;;;8.27;6.72;;;;;;;16.36;66.97;101361.69;677092;29;1337;-93
2023/09/27 00:40:23;;;;;;;8.63;6.50;;;;;;;16.30;67.03;101343.19;681843;29;1327;-92
2023/09/27 00:40:52;;;;;;;8.05;6.32;;;;;;;16.29;67.04;101355.44;679837;29;1271;-92
2023/09/27 00:41:13;;;;;;;7.82;5.90;;;;;;;16.31;66.84;101355.47;682302;29;1386;-93
2023/09/27 00:41:34;;;;;;;8.10;5.90;;;;;;;16.30;66.94;101353.72;682756;28;1234;-92
2023/09/27 00:41:56;;;;;;;8.93;6.13;;;;;;;16.31;66.79;101356.34;676684;29;1337;-92
2023/09/27 00:42:16;;;;;;;8.10;5.50;;;;;;;16.26;67.10;101352.78;682276;29;1341;-92
2023/09/27 00:42:38;;;;;;;8.85;5.20;;;;;;;16.30;66.86;101361.63;682738;29;1276;-92
2023/09/27 00:42:58;;;;;;;8.20;5.15;;;;;;;16.30;66.96;101359.84;679253;29;1341;-92
2023/09/27 00:43:25;;;;;;;8.77;5.47;;;;;;;16.35;66.96;101364.31;684301;28;1281;-92
2023/09/27 00:43:46;;;;;;;8.15;5.97;;;;;;;16.27;67.27;101364.19;679833;29;1345;-92
2023/09/27 00:44:06;;;;;;;8.30;6.33;;;;;;;16.27;66.83;101358.91;682234;29;1237;-92
2023/09/27 00:44:27;;;;;;;9.57;6.30;;;;;;;16.30;67.00;101364.25;682590;29;1910;-92
2023/09/27 00:44:48;;;;;;;8.05;5.55;;;;;;;16.33;66.96;101373.94;684590;28;1341;-93
2023/09/27 00:45:10;;;;;;;8.60;5.60;;;;;;;16.27;66.75;101358.91;685148;28;1252;-92
2023/09/27 00:45:30;;;;;;;6.95;5.57;;;;;;;16.27;66.95;101364.19;685209;28;1318;-92
2023/09/27 00:45:53;;;;;;;7.90;6.22;;;;;;;16.27;66.83;101369.44;682726;29;1201;-92
2023/09/27 00:46:16;;;;;;;9.05;6.57;;;;;;;16.21;67.01;101350.94;685337;28;1426;-92
2023/09/27 00:46:37;;;;;;;9.60;6.70;;;;;;;16.25;66.95;101361.56;682902;28;1270;-93
2023/09/27 00:46:58;;;;;;;8.57;6.50;;;;;;;16.29;67.04;101365.97;676869;29;1238;-93
2023/09/27 00:47:19;;;;;;;8.35;6.20;;;;;;;16.23;66.96;101352.69;680008;29;1116;-92
2023/09/27 00:47:41;;;;;;;8.10;6.25;;;;;;;16.21;67.07;101350.94;682768;28;1110;-92
2023/09/27 00:48:02;;;;;;;9.48;6.78;;;;;;;16.28;66.88;101374.75;682079;28;1258;-93
2023/09/27 00:48:23;;;;;;;8.85;6.97;;;;;;;16.25;67.15;101365.91;684931;28;1293;-91
2023/09/27 00:48:44;;;;;;;8.30;6.80;;;;;;;16.25;67.10;101369.47;682694;28;1189;-93
2023/09/27 00:49:05;;;;;;;9.20;6.60;;;;;;;16.23;67.15;101367.63;682265;28;1236;-92
2023/09/27 00:49:26;;;;;;;15.85;6.40;;;;;;;16.27;67.06;101369.44;682665;28;1242;-93
2023/09/27 00:49:50;;;;;;;15.55;6.57;;;;;;;16.26;67.07;101378.22;682783;28;1024;-92
2023/09/27 00:50:11;;;;;;;15.15;6.85;;;;;;;16.28;67.27;101376.50;684903;28;1356;-93
2023/09/27 00:50:32;;;;;;;10.73;7.13;;;;;;;16.24;67.26;101369.38;685401;28;1144;-92
2023/09/27 00:50:54;;;;;;;9.60;6.83;;;;;;;16.18;67.10;101360.53;682268;28;1276;-92
2023/09/27 00:51:15;;;;;;;9.55;6.57;;;;;;;16.24;67.00;101374.66;685207;28;1529;-92
2023/09/27 00:51:36;;;;;;;7.93;6.07;;;;;;;16.27;67.13;101378.25;679977;29;1276;-92
2023/09/27 00:51:57;;;;;;;8.57;6.13;;;;;;;16.27;67.01;101374.72;682431;28;1256;-92
2023/09/27 00:52:18;;;;;;;8.55;6.40;;;;;;;16.24;67.10;101369.38;680167;28;1248;-93
2023/09/27 00:52:40;;;;;;;8.88;6.47;;;;;;;16.18;67.11;101365.78;682207;29;1202;-92
2023/09/27 00:53:01;;;;;;;7.00;6.03;;;;;;;16.17;67.10;101364.03;684886;28;1281;-93
2023/09/27 00:53:25;;;;;;;7.60;5.70;;;;;;;16.16;67.16;101362.25;685334;28;1458;-92
2023/09/27 00:53:48;;;;;;;7.47;5.90;;;;;;;16.15;67.10;101368.41;683002;28;919;-92
2023/09/27 00:54:11;;;;;;;7.80;6.07;;;;;;;16.14;66.94;101364.00;677677;29;1237;-92
2023/09/27 00:54:32;;;;;;;7.13;5.53;;;;;;;16.18;67.24;101371.06;682635;29;1477;-92
2023/09/27 00:54:53;;;;;;;6.88;5.40;;;;;;;16.15;67.11;101360.50;682464;28;1297;-92
2023/09/27 00:55:19;;;;;;;7.35;5.50;;;;;;;16.12;67.23;101362.19;679899;29;1225;-91
2023/09/27 00:55:41;;;;;;;7.80;6.07;;;;;;;16.19;67.42;101371.97;682813;29;1352;-92
2023/09/27 00:56:02;;;;;;;8.30;6.60;;;;;;;16.17;67.14;101374.56;682324;28;1209;-92
2023/09/27 00:56:23;;;;;;;8.00;6.57;;;;;;;16.17;67.04;101364.03;680032;29;1250;-93
2023/09/27 00:56:47;;;;;;;8.15;6.60;;;;;;;16.12;67.12;101359.56;682834;29;1282;-92
2023/09/27 00:57:08;;;;;;;7.43;5.90;;;;;;;16.14;67.26;101365.72;685175;28;1256;-92
2023/09/27 00:57:29;;;;;;;7.65;5.70;;;;;;;16.11;67.13;101358.66;682765;28;1006;-92
2023/09/27 00:57:50;;;;;;;6.82;5.50;;;;;;;16.12;66.98;101367.47;680310;29;1134;-92
2023/09/27 00:58:16;;;;;;;8.25;5.97;;;;;;;16.11;67.06;101363.94;680481;29;1176;-92
2023/09/27 00:58:37;;;;;;;8.13;6.05;;;;;;;16.11;67.05;101363.06;680027;29;1310;-91
2023/09/27 00:58:58;;;;;;;7.43;5.82;;;;;;;16.08;66.87;101366.53;684410;28;1139;-92
2023/09/27 00:59:19;;;;;;;8.20;6.05;;;;;;;16.15;67.04;101371.03;687864;28;1253;-92
2023/09/27 00:59:40;;;;;;;9.35;6.20;;;;;;;16.07;66.99;101362.13;682853;29;1169;-92
2023/09/27 01:00:02;;;;;;;9.57;6.45;;;;;;;16.06;66.93;101360.38;682414;28;1190;-92
2023/09/27 01:00:23;;;;;;;8.07;6.05;;;;;;;16.10;67.03;101372.69;680123;29;1284;-92
2023/09/27 01:00:50;;;;;;;9.18;6.10;;;;;;;16.09;67.11;101375.34;674826;29;1304;-92
2023/09/27 01:01:12;;;;;;;8.25;5.70;;;;;;;16.04;67.10;101368.22;682041;29;1298;-92
2023/09/27 01:01:34;;;;;;;9.48;6.20;;;;;;;16.09;67.00;101376.19;685445;28;772;-92
2023/09/27 01:01:57;;;;;;;9.23;6.40;;;;;;;16.10;67.16;101379.72;682336;28;1323;-92
2023/09/27 01:02:18;;;;;;;9.75;6.45;;;;;;;16.06;67.16;101376.16;677383;29;1166;-92
2023/09/27 01:02:39;;;;;;;7.55;6.10;;;;;;;16.03;67.03;101368.19;682749;28;1370;-93
2023/09/27 01:03:02;;;;;;;7.43;5.80;;;;;;;16.11;67.23;101379.72;684933;28;1196;-92
2023/09/27 01:03:23;;;;;;;7.07;5.80;;;;;;;16.04;67.05;101368.22;684287;28;1414;-93
2023/09/27 01:03:44;;;;;;;7.90;6.03;;;;;;;16.02;67.05;101363.81;680395;29;1292;-92
2023/09/27 01:04:08;;;;;;;7.60;5.90;;;;;;;16.05;67.07;101374.41;677125;29;1207;-92
2023/09/27 01:04:29;;;;;;;7.63;5.80;;;;;;;16.08;67.08;101379.69;679924;29;1954;-92
2023/09/27 01:04:50;;;;;;;7.95;5.95;;;;;;;16.02;67.10;101369.97;682009;29;1394;-92
2023/09/27 01:05:11;;;;;;;8.93;6.35;;;;;;;15.98;67.11;101364.63;682508;28;1311;-90
2023/09/27 01:05:32;;;;;;;8.98;6.50;;;;;;;15.99;67.10;101363.78;682661;28;1304;-91
2023/09/27 01:05:54;;;;;;;8.90;6.50;;;;;;;15.99;67.17;101375.16;679843;28;1182;-92
2023/09/27 01:06:15;;;;;;;8.02;6.50;;;;;;;16.01;67.16;101372.56;681186;29;1361;-92
2023/09/27 01:06:36;;;;;;;8.95;6.72;;;;;;;15.98;67.01;101368.13;682082;28;1252;-92
2023/09/27 01:06:58;;;;;;;8.30;6.37;;;;;;;15.99;67.12;101369.03;685041;28;1148;-92
2023/09/27 01:07:19;;;;;;;8.20;6.20;;;;;;;16.05;67.09;101374.41;688883;28;1404;-92
2023/09/27 01:07:40;;;;;;;8.30;6.30;;;;;;;16.00;66.99;101365.53;687978;28;1018;-92
2023/09/27 01:08:01;;;;;;;9.00;6.75;;;;;;;15.97;67.10;101360.25;685051;28;1188;-92
2023/09/27 01:08:22;;;;;;;8.90;6.97;;;;;;;15.97;67.13;101360.25;685073;28;1365;-92
2023/09/27 01:08:43;;;;;;;9.20;6.20;;;;;;;16.02;67.27;101369.06;682546;28;1234;-92
2023/09/27 01:09:04;;;;;;;8.88;6.30;;;;;;;15.97;67.35;101365.50;685042;28;1441;-92
2023/09/27 01:09:25;;;;;;;8.93;5.90;;;;;;;16.02;67.29;101366.44;682477;28;1204;-92
2023/09/27 01:09:46;;;;;;;7.95;5.88;;;;;;;15.97;67.23;101365.50;682744;29;1334;-92
2023/09/27 01:10:08;;;;;;;8.73;5.88;;;;;;;15.99;67.17;101369.03;681656;29;1208;-92
2023/09/27 01:10:29;;;;;;;9.68;6.68;;;;;;;16.01;67.34;101369.94;682697;29;1224;-92
2023/09/27 01:10:49;;;;;;;9.47;7.00;;;;;;;15.94;67.31;101366.34;682166;29;1143;-92
2023/09/27 01:11:12;;;;;;;7.82;6.70;;;;;;;16.04;67.36;101383.13;682113;29;1376;-92
2023/09/27 01:11:33;;;;;;;7.45;6.40;;;;;;;15.94;67.37;101365.44;677488;29;1467;-92
2023/09/27 01:11:54;;;;;;;7.25;6.20;;;;;;;16.02;67.37;101376.97;684058;28;1175;-92
2023/09/27 01:12:15;;;;;;;7.03;6.00;;;;;;;16.04;67.26;101377.88;681248;29;1253;-91
2023/09/27 01:12:37;;;;;;;7.10;5.72;;;;;;;16.00;67.13;101378.69;682758;29;1345;-93
2023/09/27 01:12:58;;;;;;;6.90;5.65;;;;;;;15.98;67.18;101377.81;679850;29;1063;-92
2023/09/27 01:13:19;;;;;;;6.47;5.55;;;;;;;15.96;67.13;101374.22;682605;29;1070;-92
2023/09/27 01:13:40;;;;;;;6.82;5.70;;;;;;;16.01;67.22;101385.72;685490;28;1276;-92
2023/09/27 01:14:01;;;;;;;7.55;5.93;;;;;;;16.01;67.21;101386.63;678803;29;1214;-92
2023/09/27 01:14:22;;;;;;;10.73;6.50;;;;;;;16.02;67.19;101396.28;679591;29;1165;-92
2023/09/27 01:14:44;;;;;;;10.68;6.60;;;;;;;16.00;67.33;101394.50;680179;29;1373;-92
2023/09/27 01:15:06;;;;;;;10.85;6.88;;;;;;;15.92;67.24;101382.97;682134;29;1168;-92
2023/09/27 01:15:27;;;;;;;8.27;6.40;;;;;;;15.98;67.16;101396.22;684882;28;1133;-92
2023/09/27 01:15:47;;;;;;;7.57;6.05;;;;;;;15.96;67.23;101390.03;680191;29;1190;-92
2023/09/27 01:16:10;;;;;;;7.18;6.03;;;;;;;15.96;67.13;101401.47;684961;28;1294;-91
2023/09/27 01:16:32;;;;;;;7.47;6.03;;;;;;;15.88;67.24;101382.91;682462;29;1278;-92
2023/09/27 01:16:53;;;;;;;7.82;6.03;;;;;;;15.94;67.14;101397.94;677599;29;1278;-92
2023/09/27 01:17:13;;;;;;;7.88;5.90;;;;;;;15.89;67.46;101392.59;682223;29;1306;-92
2023/09/27 01:17:35;;;;;;;8.15;6.28;;;;;;;15.93;67.18;101397.88;677465;28;1196;-92
2023/09/27 01:18:00;;;;;;;7.90;6.30;;;;;;;15.91;67.44;101397.84;682175;28;1209;-92
2023/09/27 01:18:20;;;;;;;7.03;5.93;;;;;;;15.92;67.33;101397.00;687950;28;1099;-93
2023/09/27 01:18:41;;;;;;;7.88;6.30;;;;;;;15.97;67.47;101407.63;677256;29;1366;-92
2023/09/27 01:19:02;;;;;;;7.97;6.25;;;;;;;15.86;67.54;101389.88;684704;28;1252;-92
2023/09/27 01:19:23;;;;;;;8.55;6.25;;;;;;;15.92;67.33;101409.28;684921;28;1383;-92
2023/09/27 01:19:45;;;;;;;8.13;6.10;;;;;;;15.85;67.52;101390.75;682631;28;1386;-92
2023/09/27 01:20:06;;;;;;;13.35;6.00;;;;;;;15.89;67.42;101399.59;684925;28;1289;-93
2023/09/27 01:20:29;;;;;;;12.57;5.75;;;;;;;15.83;67.30;101394.22;682738;29;1310;-92
2023/09/27 01:20:49;;;;;;;12.80;5.80;;;;;;;15.86;67.41;101395.16;682479;29;1294;-92
2023/09/27 01:21:10;;;;;;;7.60;5.80;;;;;;;15.88;67.53;101393.44;679922;29;1233;-92
2023/09/27 01:21:31;;;;;;;7.63;5.97;;;;;;;15.92;67.42;101410.16;682811;29;1244;-92
2023/09/27 01:21:52;;;;;;;6.88;5.80;;;;;;;15.88;67.41;101397.81;682622;28;1315;-92
2023/09/27 01:22:12;;;;;;;8.20;6.00;;;;;;;15.85;67.44;101396.03;685381;28;1174;-92
2023/09/27 01:22:33;;;;;;;9.10;6.20;;;;;;;15.85;67.52;101392.53;682783;29;1214;-92
2023/09/27 01:23:05;;;;;;;10.55;6.25;;;;;;;15.83;67.52;101388.94;682520;29;1314;-93
2023/09/27 01:23:26;;;;;;;9.63;6.30;;;;;;;15.85;67.49;101400.41;685116;28;1367;-92
2023/09/27 01:23:49;;;;;;;9.90;6.30;;;;;;;15.80;67.54;101389.78;685486;28;1316;-92
2023/09/27 01:24:11;;;;;;;8.68;6.32;;;;;;;15.86;67.62;101405.69;677334;29;1266;-92
2023/09/27 01:24:35;;;;;;;8.82;6.53;;;;;;;15.80;67.55;101387.16;679905;29;1918;-92
2023/09/27 01:24:57;;;;;;;10.27;7.30;;;;;;;15.80;67.50;101388.91;679940;29;1300;-92
2023/09/27 01:25:21;;;;;;;9.30;6.80;;;;;;;15.81;67.67;101404.75;682541;29;1306;-92
2023/09/27 01:25:41;;;;;;;8.40;6.30;;;;;;;15.86;67.58;101403.06;680009;29;1620;-93
2023/09/27 01:26:03;;;;;;;9.73;6.38;;;;;;;15.80;67.66;101391.56;677984;29;1332;-92
2023/09/27 01:26:24;;;;;;;9.98;6.53;;;;;;;15.81;67.68;101388.94;685360;28;1274;-93
2023/09/27 01:26:46;;;;;;;9.45;6.40;;;;;;;15.82;67.37;101403.88;680253;29;1323;-92
2023/09/27 01:27:10;;;;;;;8.00;6.55;;;;;;;15.84;67.58;101404.78;677207;29;1173;-92
2023/09/27 01:27:30;;;;;;;7.65;6.75;;;;;;;15.79;67.55;101395.03;682953;28;1406;-93
2023/09/27 01:27:52;;;;;;;8.15;6.57;;;;;;;15.79;67.63;101395.91;685053;28;1417;-92
2023/09/27 01:28:13;;;;;;;9.35;6.50;;;;;;;15.80;67.60;101395.03;683159;28;1301;-91
2023/09/27 01:28:33;;;;;;;10.27;6.68;;;;;;;15.82;67.64;101395.09;682542;28;1222;-92
2023/09/27 01:28:54;;;;;;;9.77;6.90;;;;;;;15.84;67.51;101407.41;682540;28;1194;-92
2023/09/27 01:29:15;;;;;;;8.70;6.55;;;;;;;15.85;67.40;101408.31;682259;28;1198;-92
2023/09/27 01:29:36;;;;;;;8.63;6.50;;;;;;;15.76;67.68;101387.97;679471;29;1304;-92
2023/09/27 01:29:56;;;;;;;8.38;6.50;;;;;;;15.83;67.59;101399.47;679879;29;1195;-92
2023/09/27 01:30:17;;;;;;;9.87;6.97;;;;;;;15.81;67.58;101391.59;681340;29;1217;-92
2023/09/27 01:30:38;;;;;;;9.15;6.70;;;;;;;15.79;67.81;101395.91;680040;29;1386;-92
2023/09/27 01:30:59;;;;;;;8.73;6.47;;;;;;;15.85;67.63;101406.53;679524;29;1294;-91
2023/09/27 01:31:20;;;;;;;7.05;6.30;;;;;;;15.76;67.47;101399.38;680887;29;1304;-90
2023/09/27 01:31:41;;;;;;;8.90;6.40;;;;;;;15.77;67.81;101395.00;684148;29;1426;-91
2023/09/27 01:32:02;;;;;;;9.90;6.45;;;;;;;15.76;67.65;101398.50;685642;28;1281;-92
2023/09/27 01:32:23;;;;;;;9.70;6.00;;;;;;;15.83;67.50;101416.16;686281;28;1059;-92
2023/09/27 01:32:44;;;;;;;7.13;5.80;;;;;;;15.73;67.68;101401.97;679259;29;1343;-92
2023/09/27 01:33:06;;;;;;;6.63;5.65;;;;;;;15.82;67.59;101417.03;676651;29;1295;-93
2023/09/27 01:33:27;;;;;;;7.20;5.55;;;;;;;15.71;67.47;101397.53;679870;29;990;-92
2023/09/27 01:33:48;;;;;;;7.03;5.43;;;;;;;15.72;67.55;101396.66;681246;29;1608;-92
2023/09/27 01:34:09;;;;;;;7.38;5.60;;;;;;;15.73;67.37;101404.59;682241;28;1217;-92
2023/09/27 01:34:30;;;;;;;8.15;6.00;;;;;;;15.73;67.63;101403.72;679796;29;1258;-91
2023/09/27 01:34:51;;;;;;;9.07;6.37;;;;;;;15.75;67.76;101413.41;679819;29;1277;-92
2023/09/27 01:35:11;;;;;;;8.15;6.30;;;;;;;15.75;67.63;101418.66;677233;29;1340;-92
2023/09/27 01:35:34;;;;;;;8.57;6.30;;;;;;;15.67;67.50;101399.22;677254;29;1230;-92
2023/09/27 01:35:56;;;;;;;8.13;6.13;;;;;;;15.74;67.39;101411.63;681087;29;1338;-92
2023/09/27 01:36:17;;;;;;;10.55;6.35;;;;;;;15.69;67.47;101401.91;682425;29;1064;-92
2023/09/27 01:36:37;;;;;;;12.80;6.30;;;;;;;15.72;67.66;101408.09;682741;29;1275;-91
2023/09/27 01:36:58;;;;;;;13.80;6.70;;;;;;;15.70;67.64;101415.09;684496;28;1261;-92
2023/09/27 01:37:18;;;;;;;12.13;6.67;;;;;;;15.67;67.46;101395.72;682448;28;1180;-92
2023/09/27 01:37:39;;;;;;;9.32;6.90;;;;;;;15.69;67.54;101407.16;682733;28;1236;-92
2023/09/27 01:38:00;;;;;;;8.55;6.50;;;;;;;15.67;67.64;101403.63;684717;28;1213;-92
2023/09/27 01:38:21;;;;;;;7.88;6.53;;;;;;;15.65;67.58;101400.06;682622;29;1352;-92
2023/09/27 01:38:42;;;;;;;7.35;6.30;;;;;;;15.70;67.69;101412.47;680053;29;1336;-92
2023/09/27 01:39:03;;;;;;;7.70;6.75;;;;;;;15.66;67.50;101405.34;682307;29;1192;-90
2023/09/27 01:39:24;;;;;;;7.80;6.60;;;;;;;15.68;67.49;101405.38;679880;29;1384;-92
2023/09/27 01:39:45;;;;;;;8.07;6.60;;;;;;;15.70;67.67;101406.28;674744;29;1326;-92
2023/09/27 01:40:09;;;;;;;8.38;6.45;;;;;;;15.70;67.49;101416.81;682539;28;1310;-92
2023/09/27 01:40:30;;;;;;;8.57;6.65;;;;;;;15.66;67.51;101407.13;685630;28;1465;-92
2023/09/27 01:40:51;;;;;;;7.80;6.20;;;;;;;15.63;67.68;101408.81;679542;29;1099;-92
2023/09/27 01:41:13;;;;;;;7.80;6.25;;;;;;;15.60;67.53;101398.25;681138;28;1270;-92
2023/09/27 01:41:34;;;;;;;8.02;6.05;;;;;;;15.65;67.61;101410.56;679914;29;1320;-92
2023/09/27 01:41:55;;;;;;;8.57;6.80;;;;;;;15.60;67.34;101398.25;682176;29;1370;-92
2023/09/27 01:42:17;;;;;;;9.25;6.53;;;;;;;15.63;67.60;101413.22;679812;29;1347;-92